sensor_id;sensor_type;location;lat;lon;timestamp;P1;durP1;ratioP1;P2;durP2;ratioP2
52744;SDS011;38637;49.984;20.426;2024-03-02T00:01:48;21.23;;;13.30;;
52744;SDS011;38637;49.984;20.426;2024-03-02T00:04:13;24.27;;;16.33;;
52744;SDS011;38637;49.984;20.426;2024-03-02T00:06:38;22.07;;;16.63;;
52744;SDS011;38637;49.984;20.426;2024-03-02T00:09:04;22.70;;;16.17;;
52744;SDS011;38637;49.984;20.426;2024-03-02T00:11:29;23.00;;;17.17;;
52744;SDS011;38637;49.984;20.426;2024-03-02T00:13:54;22.63;;;16.70;;
52744;SDS011;38637;49.984;20.426;2024-03-02T00:16:20;27.00;;;18.03;;
52744;SDS011;38637;49.984;20.426;2024-03-02T00:18:45;25.30;;;18.00;;
52744;SDS011;38637;49.984;20.426;2024-03-02T00:21:11;25.37;;;17.67;;
52744;SDS011;38637;49.984;20.426;2024-03-02T00:23:39;27.73;;;17.17;;
52744;SDS011;38637;49.984;20.426;2024-03-02T00:26:05;26.83;;;19.80;;
52744;SDS011;38637;49.984;20.426;2024-03-02T00:28:33;28.83;;;21.90;;
52744;SDS011;38637;49.984;20.426;2024-03-02T00:31:06;32.80;;;20.15;;
52744;SDS011;38637;49.984;20.426;2024-03-02T00:36:02;34.95;;;21.38;;
52744;SDS011;38637;49.984;20.426;2024-03-02T00:38:29;33.35;;;22.63;;
52744;SDS011;38637;49.984;20.426;2024-03-02T00:40:55;29.58;;;19.45;;
52744;SDS011;38637;49.984;20.426;2024-03-02T00:43:40;33.90;;;21.23;;
52744;SDS011;38637;49.984;20.426;2024-03-02T00:46:06;35.08;;;21.02;;
52744;SDS011;38637;49.984;20.426;2024-03-02T00:48:32;30.27;;;19.92;;
52744;SDS011;38637;49.984;20.426;2024-03-02T00:51:00;30.83;;;20.00;;
52744;SDS011;38637;49.984;20.426;2024-03-02T00:53:28;29.20;;;21.17;;
52744;SDS011;38637;49.984;20.426;2024-03-02T00:55:54;28.17;;;21.08;;
52744;SDS011;38637;49.984;20.426;2024-03-02T00:58:20;30.10;;;21.70;;
52744;SDS011;38637;49.984;20.426;2024-03-02T01:00:46;30.43;;;20.47;;
52744;SDS011;38637;49.984;20.426;2024-03-02T01:03:11;37.77;;;23.73;;
52744;SDS011;38637;49.984;20.426;2024-03-02T01:05:40;33.80;;;22.97;;
52744;SDS011;38637;49.984;20.426;2024-03-02T01:08:07;38.92;;;24.10;;
52744;SDS011;38637;49.984;20.426;2024-03-02T01:10:32;31.37;;;23.77;;
52744;SDS011;38637;49.984;20.426;2024-03-02T01:12:58;32.57;;;23.97;;
52744;SDS011;38637;49.984;20.426;2024-03-02T01:15:23;33.87;;;25.50;;
52744;SDS011;38637;49.984;20.426;2024-03-02T01:17:48;36.87;;;25.20;;
52744;SDS011;38637;49.984;20.426;2024-03-02T01:20:14;36.87;;;26.77;;
52744;SDS011;38637;49.984;20.426;2024-03-02T01:22:39;38.13;;;28.23;;
52744;SDS011;38637;49.984;20.426;2024-03-02T01:25:04;37.67;;;27.57;;
52744;SDS011;38637;49.984;20.426;2024-03-02T01:27:30;41.40;;;28.30;;
52744;SDS011;38637;49.984;20.426;2024-03-02T01:29:56;39.17;;;29.53;;
52744;SDS011;38637;49.984;20.426;2024-03-02T01:32:21;44.40;;;30.37;;
52744;SDS011;38637;49.984;20.426;2024-03-02T01:34:46;42.53;;;30.87;;
52744;SDS011;38637;49.984;20.426;2024-03-02T01:37:12;47.07;;;31.90;;
52744;SDS011;38637;49.984;20.426;2024-03-02T01:39:37;43.00;;;31.93;;
52744;SDS011;38637;49.984;20.426;2024-03-02T01:42:02;48.77;;;30.87;;
52744;SDS011;38637;49.984;20.426;2024-03-02T01:44:28;37.90;;;30.60;;
52744;SDS011;38637;49.984;20.426;2024-03-02T01:46:53;43.83;;;31.70;;
52744;SDS011;38637;49.984;20.426;2024-03-02T01:49:19;50.07;;;32.07;;
52744;SDS011;38637;49.984;20.426;2024-03-02T01:51:44;49.60;;;36.13;;
52744;SDS011;38637;49.984;20.426;2024-03-02T01:54:09;41.60;;;32.63;;
52744;SDS011;38637;49.984;20.426;2024-03-02T01:56:35;42.73;;;31.17;;
52744;SDS011;38637;49.984;20.426;2024-03-02T01:59:00;44.27;;;30.47;;
52744;SDS011;38637;49.984;20.426;2024-03-02T02:01:26;40.43;;;31.17;;
52744;SDS011;38637;49.984;20.426;2024-03-02T02:03:51;43.97;;;31.80;;
52744;SDS011;38637;49.984;20.426;2024-03-02T02:06:17;44.37;;;33.00;;
52744;SDS011;38637;49.984;20.426;2024-03-02T02:08:42;47.83;;;33.93;;
52744;SDS011;38637;49.984;20.426;2024-03-02T02:11:08;42.10;;;32.47;;
52744;SDS011;38637;49.984;20.426;2024-03-02T02:13:33;41.63;;;31.33;;
52744;SDS011;38637;49.984;20.426;2024-03-02T02:16:05;41.70;;;31.37;;
52744;SDS011;38637;49.984;20.426;2024-03-02T02:18:34;46.20;;;32.15;;
52744;SDS011;38637;49.984;20.426;2024-03-02T02:21:00;42.90;;;29.85;;
52744;SDS011;38637;49.984;20.426;2024-03-02T02:23:26;42.40;;;31.17;;
52744;SDS011;38637;49.984;20.426;2024-03-02T02:25:51;41.87;;;29.83;;
52744;SDS011;38637;49.984;20.426;2024-03-02T02:28:16;42.57;;;31.97;;
52744;SDS011;38637;49.984;20.426;2024-03-02T02:30:42;42.33;;;30.67;;
52744;SDS011;38637;49.984;20.426;2024-03-02T02:33:07;43.97;;;31.37;;
52744;SDS011;38637;49.984;20.426;2024-03-02T02:35:33;46.67;;;31.93;;
52744;SDS011;38637;49.984;20.426;2024-03-02T02:37:58;42.53;;;31.93;;
52744;SDS011;38637;49.984;20.426;2024-03-02T02:40:24;39.50;;;30.30;;
52744;SDS011;38637;49.984;20.426;2024-03-02T02:42:49;37.70;;;28.17;;
52744;SDS011;38637;49.984;20.426;2024-03-02T02:45:16;39.35;;;27.92;;
52744;SDS011;38637;49.984;20.426;2024-03-02T02:47:42;40.70;;;29.30;;
52744;SDS011;38637;49.984;20.426;2024-03-02T02:52:35;40.17;;;34.08;;
52744;SDS011;38637;49.984;20.426;2024-03-02T02:55:07;38.28;;;27.67;;
52744;SDS011;38637;49.984;20.426;2024-03-02T02:57:33;39.25;;;33.40;;
52744;SDS011;38637;49.984;20.426;2024-03-02T03:00:02;40.72;;;28.55;;
52744;SDS011;38637;49.984;20.426;2024-03-02T03:02:30;47.03;;;30.65;;
52744;SDS011;38637;49.984;20.426;2024-03-02T03:04:56;40.13;;;27.10;;
52744;SDS011;38637;49.984;20.426;2024-03-02T03:07:22;39.85;;;28.35;;
52744;SDS011;38637;49.984;20.426;2024-03-02T03:09:47;40.20;;;28.53;;
52744;SDS011;38637;49.984;20.426;2024-03-02T03:12:13;46.27;;;29.53;;
52744;SDS011;38637;49.984;20.426;2024-03-02T03:14:39;44.23;;;30.17;;
52744;SDS011;38637;49.984;20.426;2024-03-02T03:17:05;43.72;;;29.05;;
52744;SDS011;38637;49.984;20.426;2024-03-02T03:19:32;38.80;;;28.00;;
52744;SDS011;38637;49.984;20.426;2024-03-02T03:21:57;35.63;;;27.53;;
52744;SDS011;38637;49.984;20.426;2024-03-02T03:24:22;37.03;;;28.33;;
52744;SDS011;38637;49.984;20.426;2024-03-02T03:26:47;41.50;;;28.90;;
52744;SDS011;38637;49.984;20.426;2024-03-02T03:29:13;37.80;;;27.60;;
52744;SDS011;38637;49.984;20.426;2024-03-02T03:31:38;37.33;;;28.50;;
52744;SDS011;38637;49.984;20.426;2024-03-02T03:34:03;35.63;;;27.50;;
52744;SDS011;38637;49.984;20.426;2024-03-02T03:36:28;39.23;;;27.53;;
52744;SDS011;38637;49.984;20.426;2024-03-02T03:38:54;43.70;;;29.30;;
52744;SDS011;38637;49.984;20.426;2024-03-02T03:41:19;39.67;;;28.97;;
52744;SDS011;38637;49.984;20.426;2024-03-02T03:43:44;43.13;;;30.63;;
52744;SDS011;38637;49.984;20.426;2024-03-02T03:46:09;44.70;;;29.43;;
52744;SDS011;38637;49.984;20.426;2024-03-02T03:48:35;38.10;;;28.10;;
52744;SDS011;38637;49.984;20.426;2024-03-02T03:51:00;40.50;;;30.27;;
52744;SDS011;38637;49.984;20.426;2024-03-02T03:53:25;44.73;;;31.57;;
52744;SDS011;38637;49.984;20.426;2024-03-02T03:55:51;41.53;;;29.97;;
52744;SDS011;38637;49.984;20.426;2024-03-02T03:58:16;40.40;;;29.93;;
52744;SDS011;38637;49.984;20.426;2024-03-02T04:00:43;38.15;;;29.13;;
52744;SDS011;38637;49.984;20.426;2024-03-02T04:03:09;35.57;;;25.33;;
52744;SDS011;38637;49.984;20.426;2024-03-02T04:05:34;37.33;;;26.37;;
52744;SDS011;38637;49.984;20.426;2024-03-02T04:07:59;38.93;;;28.57;;
52744;SDS011;38637;49.984;20.426;2024-03-02T04:10:25;35.78;;;27.30;;
52744;SDS011;38637;49.984;20.426;2024-03-02T04:12:50;42.43;;;29.60;;
52744;SDS011;38637;49.984;20.426;2024-03-02T04:15:16;41.73;;;28.67;;
52744;SDS011;38637;49.984;20.426;2024-03-02T04:17:43;41.22;;;28.80;;
52744;SDS011;38637;49.984;20.426;2024-03-02T04:20:08;38.33;;;28.77;;
52744;SDS011;38637;49.984;20.426;2024-03-02T04:22:34;41.30;;;27.60;;
52744;SDS011;38637;49.984;20.426;2024-03-02T04:25:00;30.08;;;22.98;;
52744;SDS011;38637;49.984;20.426;2024-03-02T04:27:26;35.77;;;27.50;;
52744;SDS011;38637;49.984;20.426;2024-03-02T04:29:51;37.00;;;26.87;;
52744;SDS011;38637;49.984;20.426;2024-03-02T04:32:16;30.37;;;22.83;;
52744;SDS011;38637;49.984;20.426;2024-03-02T04:34:42;28.30;;;21.70;;
52744;SDS011;38637;49.984;20.426;2024-03-02T04:37:07;30.13;;;22.90;;
52744;SDS011;38637;49.984;20.426;2024-03-02T04:39:34;31.57;;;23.17;;
52744;SDS011;38637;49.984;20.426;2024-03-02T04:42:00;33.20;;;24.42;;
52744;SDS011;38637;49.984;20.426;2024-03-02T04:44:25;35.60;;;25.07;;
52744;SDS011;38637;49.984;20.426;2024-03-02T04:46:50;36.50;;;26.50;;
52744;SDS011;38637;49.984;20.426;2024-03-02T04:49:16;36.43;;;26.60;;
52744;SDS011;38637;49.984;20.426;2024-03-02T04:51:41;40.50;;;26.33;;
52744;SDS011;38637;49.984;20.426;2024-03-02T04:54:06;33.40;;;25.03;;
52744;SDS011;38637;49.984;20.426;2024-03-02T04:56:31;37.77;;;26.43;;
52744;SDS011;38637;49.984;20.426;2024-03-02T04:58:58;32.37;;;24.03;;
52744;SDS011;38637;49.984;20.426;2024-03-02T05:01:23;29.45;;;23.60;;
52744;SDS011;38637;49.984;20.426;2024-03-02T05:03:48;25.23;;;20.03;;
52744;SDS011;38637;49.984;20.426;2024-03-02T05:06:14;27.83;;;21.43;;
52744;SDS011;38637;49.984;20.426;2024-03-02T05:08:39;29.60;;;21.17;;
52744;SDS011;38637;49.984;20.426;2024-03-02T05:11:04;31.53;;;22.90;;
52744;SDS011;38637;49.984;20.426;2024-03-02T05:13:48;28.80;;;22.60;;
52744;SDS011;38637;49.984;20.426;2024-03-02T05:16:14;33.67;;;24.97;;
52744;SDS011;38637;49.984;20.426;2024-03-02T05:18:39;45.47;;;27.50;;
52744;SDS011;38637;49.984;20.426;2024-03-02T05:21:04;40.03;;;28.43;;
52744;SDS011;38637;49.984;20.426;2024-03-02T05:23:29;39.67;;;27.87;;
52744;SDS011;38637;49.984;20.426;2024-03-02T05:25:55;38.08;;;24.65;;
52744;SDS011;38637;49.984;20.426;2024-03-02T05:28:21;38.73;;;25.53;;
52744;SDS011;38637;49.984;20.426;2024-03-02T05:30:46;34.47;;;30.90;;
52744;SDS011;38637;49.984;20.426;2024-03-02T05:33:12;37.55;;;25.80;;
52744;SDS011;38637;49.984;20.426;2024-03-02T05:35:37;34.80;;;25.90;;
52744;SDS011;38637;49.984;20.426;2024-03-02T05:38:03;40.60;;;26.37;;
52744;SDS011;38637;49.984;20.426;2024-03-02T05:40:28;36.57;;;26.57;;
52744;SDS011;38637;49.984;20.426;2024-03-02T05:42:53;38.57;;;26.47;;
52744;SDS011;38637;49.984;20.426;2024-03-02T05:45:18;36.43;;;25.17;;
52744;SDS011;38637;49.984;20.426;2024-03-02T05:47:44;38.57;;;27.77;;
52744;SDS011;38637;49.984;20.426;2024-03-02T05:50:09;36.27;;;26.40;;
52744;SDS011;38637;49.984;20.426;2024-03-02T05:52:34;40.13;;;29.10;;
52744;SDS011;38637;49.984;20.426;2024-03-02T05:55:00;41.87;;;30.97;;
52744;SDS011;38637;49.984;20.426;2024-03-02T05:57:25;46.87;;;33.37;;
52744;SDS011;38637;49.984;20.426;2024-03-02T06:00:06;43.63;;;28.20;;
52744;SDS011;38637;49.984;20.426;2024-03-02T06:02:33;39.05;;;28.02;;
52744;SDS011;38637;49.984;20.426;2024-03-02T06:05:00;40.70;;;30.52;;
52744;SDS011;38637;49.984;20.426;2024-03-02T06:07:25;40.90;;;30.80;;
52744;SDS011;38637;49.984;20.426;2024-03-02T06:09:51;33.73;;;25.87;;
52744;SDS011;38637;49.984;20.426;2024-03-02T06:12:17;38.80;;;27.15;;
52744;SDS011;38637;49.984;20.426;2024-03-02T06:14:43;41.10;;;30.13;;
52744;SDS011;38637;49.984;20.426;2024-03-02T06:17:08;39.97;;;30.97;;
52744;SDS011;38637;49.984;20.426;2024-03-02T06:19:33;39.43;;;30.37;;
52744;SDS011;38637;49.984;20.426;2024-03-02T06:21:59;39.47;;;29.83;;
52744;SDS011;38637;49.984;20.426;2024-03-02T06:24:24;42.67;;;31.43;;
52744;SDS011;38637;49.984;20.426;2024-03-02T06:29:17;42.15;;;31.30;;
52744;SDS011;38637;49.984;20.426;2024-03-02T06:31:42;42.10;;;30.27;;
52744;SDS011;38637;49.984;20.426;2024-03-02T06:34:07;45.07;;;31.17;;
52744;SDS011;38637;49.984;20.426;2024-03-02T06:36:33;39.80;;;29.90;;
52744;SDS011;38637;49.984;20.426;2024-03-02T06:38:59;43.70;;;31.20;;
52744;SDS011;38637;49.984;20.426;2024-03-02T06:41:24;47.03;;;31.47;;
52744;SDS011;38637;49.984;20.426;2024-03-02T06:43:49;43.40;;;30.83;;
52744;SDS011;38637;49.984;20.426;2024-03-02T06:46:14;39.47;;;28.80;;
52744;SDS011;38637;49.984;20.426;2024-03-02T06:48:40;36.87;;;28.27;;
52744;SDS011;38637;49.984;20.426;2024-03-02T06:51:05;41.40;;;30.00;;
52744;SDS011;38637;49.984;20.426;2024-03-02T06:53:30;47.10;;;31.50;;
52744;SDS011;38637;49.984;20.426;2024-03-02T06:55:58;45.13;;;31.60;;
52744;SDS011;38637;49.984;20.426;2024-03-02T06:58:23;45.83;;;30.10;;
52744;SDS011;38637;49.984;20.426;2024-03-02T07:00:49;39.33;;;28.90;;
52744;SDS011;38637;49.984;20.426;2024-03-02T07:03:14;41.07;;;27.87;;
52744;SDS011;38637;49.984;20.426;2024-03-02T07:05:39;39.90;;;30.53;;
52744;SDS011;38637;49.984;20.426;2024-03-02T07:08:05;43.37;;;29.50;;
52744;SDS011;38637;49.984;20.426;2024-03-02T07:10:31;41.33;;;30.15;;
52744;SDS011;38637;49.984;20.426;2024-03-02T07:12:56;41.07;;;29.40;;
52744;SDS011;38637;49.984;20.426;2024-03-02T07:15:21;41.03;;;29.80;;
52744;SDS011;38637;49.984;20.426;2024-03-02T07:17:52;40.08;;;29.55;;
52744;SDS011;38637;49.984;20.426;2024-03-02T07:20:17;39.13;;;29.70;;
52744;SDS011;38637;49.984;20.426;2024-03-02T07:22:43;39.00;;;29.50;;
52744;SDS011;38637;49.984;20.426;2024-03-02T07:25:08;39.07;;;27.47;;
52744;SDS011;38637;49.984;20.426;2024-03-02T07:27:33;46.50;;;30.37;;
52744;SDS011;38637;49.984;20.426;2024-03-02T07:30:01;38.67;;;29.80;;
52744;SDS011;38637;49.984;20.426;2024-03-02T07:32:27;41.40;;;29.90;;
52744;SDS011;38637;49.984;20.426;2024-03-02T07:34:52;41.33;;;30.90;;
52744;SDS011;38637;49.984;20.426;2024-03-02T07:37:17;47.30;;;26.77;;
52744;SDS011;38637;49.984;20.426;2024-03-02T07:39:44;37.72;;;28.48;;
52744;SDS011;38637;49.984;20.426;2024-03-02T07:42:10;40.40;;;30.30;;
52744;SDS011;38637;49.984;20.426;2024-03-02T07:44:35;40.83;;;31.27;;
52744;SDS011;38637;49.984;20.426;2024-03-02T07:47:00;39.47;;;30.33;;
52744;SDS011;38637;49.984;20.426;2024-03-02T07:49:26;40.33;;;28.63;;
52744;SDS011;38637;49.984;20.426;2024-03-02T07:51:51;38.07;;;28.10;;
52744;SDS011;38637;49.984;20.426;2024-03-02T07:54:16;36.27;;;29.40;;
52744;SDS011;38637;49.984;20.426;2024-03-02T07:56:42;41.53;;;28.50;;
52744;SDS011;38637;49.984;20.426;2024-03-02T07:59:07;35.83;;;29.07;;
52744;SDS011;38637;49.984;20.426;2024-03-02T08:01:33;36.20;;;28.07;;
52744;SDS011;38637;49.984;20.426;2024-03-02T08:03:59;42.27;;;32.10;;
52744;SDS011;38637;49.984;20.426;2024-03-02T08:06:26;38.95;;;31.25;;
52744;SDS011;38637;49.984;20.426;2024-03-02T08:08:56;41.83;;;31.65;;
52744;SDS011;38637;49.984;20.426;2024-03-02T08:11:22;38.78;;;29.38;;
52744;SDS011;38637;49.984;20.426;2024-03-02T08:13:48;39.77;;;28.87;;
52744;SDS011;38637;49.984;20.426;2024-03-02T08:16:14;36.90;;;29.63;;
52744;SDS011;38637;49.984;20.426;2024-03-02T08:18:40;32.88;;;27.23;;
52744;SDS011;38637;49.984;20.426;2024-03-02T08:21:06;40.33;;;29.83;;
52744;SDS011;38637;49.984;20.426;2024-03-02T08:23:33;38.78;;;28.65;;
52744;SDS011;38637;49.984;20.426;2024-03-02T08:25:58;43.17;;;31.90;;
52744;SDS011;38637;49.984;20.426;2024-03-02T08:28:24;37.73;;;29.40;;
52744;SDS011;38637;49.984;20.426;2024-03-02T08:30:49;44.57;;;32.07;;
52744;SDS011;38637;49.984;20.426;2024-03-02T08:33:14;39.27;;;30.30;;
52744;SDS011;38637;49.984;20.426;2024-03-02T08:35:40;45.23;;;30.30;;
52744;SDS011;38637;49.984;20.426;2024-03-02T08:38:05;42.03;;;30.77;;
52744;SDS011;38637;49.984;20.426;2024-03-02T08:40:30;38.87;;;30.53;;
52744;SDS011;38637;49.984;20.426;2024-03-02T08:42:56;38.80;;;31.30;;
52744;SDS011;38637;49.984;20.426;2024-03-02T08:45:21;43.77;;;32.53;;
52744;SDS011;38637;49.984;20.426;2024-03-02T08:47:47;41.03;;;33.77;;
52744;SDS011;38637;49.984;20.426;2024-03-02T08:50:13;45.13;;;36.45;;
52744;SDS011;38637;49.984;20.426;2024-03-02T08:52:38;41.87;;;34.57;;
52744;SDS011;38637;49.984;20.426;2024-03-02T08:55:04;45.87;;;33.70;;
52744;SDS011;38637;49.984;20.426;2024-03-02T08:57:29;41.30;;;31.97;;
52744;SDS011;38637;49.984;20.426;2024-03-02T08:59:55;36.63;;;30.13;;
52744;SDS011;38637;49.984;20.426;2024-03-02T09:02:20;45.60;;;32.97;;
52744;SDS011;38637;49.984;20.426;2024-03-02T09:04:46;48.73;;;35.53;;
52744;SDS011;38637;49.984;20.426;2024-03-02T09:07:11;58.77;;;34.63;;
52744;SDS011;38637;49.984;20.426;2024-03-02T09:09:36;45.97;;;36.63;;
52744;SDS011;38637;49.984;20.426;2024-03-02T09:12:04;57.25;;;41.95;;
52744;SDS011;38637;49.984;20.426;2024-03-02T09:14:30;45.50;;;36.35;;
52744;SDS011;38637;49.984;20.426;2024-03-02T09:16:55;49.40;;;37.67;;
52744;SDS011;38637;49.984;20.426;2024-03-02T09:19:21;46.23;;;36.53;;
52744;SDS011;38637;49.984;20.426;2024-03-02T09:21:46;46.33;;;32.70;;
52744;SDS011;38637;49.984;20.426;2024-03-02T09:24:11;50.40;;;33.67;;
52744;SDS011;38637;49.984;20.426;2024-03-02T09:26:37;49.57;;;33.27;;
52744;SDS011;38637;49.984;20.426;2024-03-02T09:29:02;41.07;;;33.17;;
52744;SDS011;38637;49.984;20.426;2024-03-02T09:31:28;47.83;;;30.27;;
52744;SDS011;38637;49.984;20.426;2024-03-02T09:33:53;46.90;;;35.17;;
52744;SDS011;38637;49.984;20.426;2024-03-02T09:36:19;37.87;;;29.77;;
52744;SDS011;38637;49.984;20.426;2024-03-02T09:38:45;39.53;;;32.20;;
52744;SDS011;38637;49.984;20.426;2024-03-02T09:41:10;38.03;;;31.07;;
52744;SDS011;38637;49.984;20.426;2024-03-02T09:43:36;40.20;;;32.83;;
52744;SDS011;38637;49.984;20.426;2024-03-02T09:46:02;39.15;;;31.35;;
52744;SDS011;38637;49.984;20.426;2024-03-02T09:48:28;45.53;;;31.83;;
52744;SDS011;38637;49.984;20.426;2024-03-02T09:50:54;43.03;;;32.80;;
52744;SDS011;38637;49.984;20.426;2024-03-02T09:53:19;35.10;;;31.07;;
52744;SDS011;38637;49.984;20.426;2024-03-02T09:55:47;34.93;;;29.10;;
52744;SDS011;38637;49.984;20.426;2024-03-02T09:58:13;39.50;;;28.77;;
52744;SDS011;38637;49.984;20.426;2024-03-02T10:00:38;35.87;;;29.53;;
52744;SDS011;38637;49.984;20.426;2024-03-02T10:03:04;34.50;;;28.43;;
52744;SDS011;38637;49.984;20.426;2024-03-02T10:05:30;37.80;;;29.30;;
52744;SDS011;38637;49.984;20.426;2024-03-02T10:07:58;45.33;;;32.13;;
52744;SDS011;38637;49.984;20.426;2024-03-02T10:10:33;40.97;;;31.50;;
52744;SDS011;38637;49.984;20.426;2024-03-02T10:13:04;38.35;;;30.45;;
52744;SDS011;38637;49.984;20.426;2024-03-02T10:15:30;39.53;;;29.75;;
52744;SDS011;38637;49.984;20.426;2024-03-02T10:17:55;39.17;;;30.03;;
52744;SDS011;38637;49.984;20.426;2024-03-02T10:20:21;38.17;;;31.07;;
52744;SDS011;38637;49.984;20.426;2024-03-02T10:22:48;41.60;;;30.50;;
52744;SDS011;38637;49.984;20.426;2024-03-02T10:25:32;37.27;;;30.63;;
52744;SDS011;38637;49.984;20.426;2024-03-02T10:27:58;36.80;;;28.77;;
52744;SDS011;38637;49.984;20.426;2024-03-02T10:30:24;33.75;;;28.05;;
52744;SDS011;38637;49.984;20.426;2024-03-02T10:32:50;34.95;;;27.83;;
52744;SDS011;38637;49.984;20.426;2024-03-02T10:35:17;33.78;;;28.17;;
52744;SDS011;38637;49.984;20.426;2024-03-02T10:37:43;35.37;;;28.10;;
52744;SDS011;38637;49.984;20.426;2024-03-02T10:40:10;37.10;;;28.33;;
52744;SDS011;38637;49.984;20.426;2024-03-02T10:42:36;31.33;;;26.40;;
52744;SDS011;38637;49.984;20.426;2024-03-02T10:45:03;35.47;;;29.02;;
52744;SDS011;38637;49.984;20.426;2024-03-02T10:47:30;31.05;;;26.45;;
52744;SDS011;38637;49.984;20.426;2024-03-02T10:49:59;32.15;;;26.85;;
52744;SDS011;38637;49.984;20.426;2024-03-02T10:52:26;31.50;;;28.10;;
52744;SDS011;38637;49.984;20.426;2024-03-02T10:54:51;30.27;;;26.53;;
52744;SDS011;38637;49.984;20.426;2024-03-02T10:57:17;36.23;;;29.17;;
52744;SDS011;38637;49.984;20.426;2024-03-02T10:59:56;35.70;;;27.25;;
52744;SDS011;38637;49.984;20.426;2024-03-02T11:02:26;30.67;;;26.70;;
52744;SDS011;38637;49.984;20.426;2024-03-02T11:04:54;32.13;;;28.67;;
52744;SDS011;38637;49.984;20.426;2024-03-02T11:07:20;33.63;;;27.88;;
52744;SDS011;38637;49.984;20.426;2024-03-02T11:09:57;37.38;;;28.88;;
52744;SDS011;38637;49.984;20.426;2024-03-02T11:12:29;34.90;;;29.08;;
52744;SDS011;38637;49.984;20.426;2024-03-02T11:15:01;37.25;;;29.98;;
52744;SDS011;38637;49.984;20.426;2024-03-02T11:17:29;36.13;;;29.35;;
52744;SDS011;38637;49.984;20.426;2024-03-02T11:19:55;33.90;;;30.23;;
52744;SDS011;38637;49.984;20.426;2024-03-02T11:22:23;39.45;;;30.35;;
52744;SDS011;38637;49.984;20.426;2024-03-02T11:24:49;33.93;;;28.70;;
52744;SDS011;38637;49.984;20.426;2024-03-02T11:27:20;36.28;;;28.60;;
52744;SDS011;38637;49.984;20.426;2024-03-02T11:30:14;35.55;;;28.95;;
52744;SDS011;38637;49.984;20.426;2024-03-02T11:32:58;35.72;;;29.55;;
52744;SDS011;38637;49.984;20.426;2024-03-02T11:35:25;37.80;;;30.60;;
52744;SDS011;38637;49.984;20.426;2024-03-02T11:37:51;33.72;;;28.38;;
52744;SDS011;38637;49.984;20.426;2024-03-02T11:40:23;36.15;;;28.35;;
52744;SDS011;38637;49.984;20.426;2024-03-02T11:42:50;35.05;;;28.27;;
52744;SDS011;38637;49.984;20.426;2024-03-02T11:45:16;33.03;;;26.87;;
52744;SDS011;38637;49.984;20.426;2024-03-02T11:47:46;38.78;;;27.83;;
52744;SDS011;38637;49.984;20.426;2024-03-02T11:50:15;31.90;;;26.40;;
52744;SDS011;38637;49.984;20.426;2024-03-02T11:52:40;31.87;;;26.87;;
52744;SDS011;38637;49.984;20.426;2024-03-02T11:55:07;31.15;;;25.83;;
52744;SDS011;38637;49.984;20.426;2024-03-02T11:57:34;37.50;;;27.05;;
52744;SDS011;38637;49.984;20.426;2024-03-02T12:00:00;34.55;;;26.65;;
52744;SDS011;38637;49.984;20.426;2024-03-02T12:02:28;35.00;;;27.05;;
52744;SDS011;38637;49.984;20.426;2024-03-02T12:04:54;37.60;;;27.90;;
52744;SDS011;38637;49.984;20.426;2024-03-02T12:07:23;37.35;;;27.73;;
52744;SDS011;38637;49.984;20.426;2024-03-02T12:09:58;34.53;;;26.75;;
52744;SDS011;38637;49.984;20.426;2024-03-02T12:12:25;32.20;;;26.00;;
52744;SDS011;38637;49.984;20.426;2024-03-02T12:14:51;35.47;;;27.75;;
52744;SDS011;38637;49.984;20.426;2024-03-02T12:19:44;38.28;;;27.75;;
52744;SDS011;38637;49.984;20.426;2024-03-02T12:22:09;31.73;;;21.63;;
52744;SDS011;38637;49.984;20.426;2024-03-02T12:24:34;27.80;;;24.63;;
52744;SDS011;38637;49.984;20.426;2024-03-02T12:27:00;28.60;;;22.67;;
52744;SDS011;38637;49.984;20.426;2024-03-02T12:29:26;27.37;;;22.43;;
52744;SDS011;38637;49.984;20.426;2024-03-02T12:31:52;28.13;;;22.83;;
52744;SDS011;38637;49.984;20.426;2024-03-02T12:34:17;26.98;;;21.02;;
52744;SDS011;38637;49.984;20.426;2024-03-02T12:36:44;34.42;;;22.55;;
52744;SDS011;38637;49.984;20.426;2024-03-02T12:39:12;31.20;;;21.83;;
52744;SDS011;38637;49.984;20.426;2024-03-02T12:44:04;34.80;;;21.30;;
52744;SDS011;38637;49.984;20.426;2024-03-02T12:46:30;31.85;;;22.05;;
52744;SDS011;38637;49.984;20.426;2024-03-02T12:48:57;23.52;;;19.08;;
52744;SDS011;38637;49.984;20.426;2024-03-02T12:51:22;28.43;;;20.43;;
52744;SDS011;38637;49.984;20.426;2024-03-02T12:53:54;24.40;;;19.77;;
52744;SDS011;38637;49.984;20.426;2024-03-02T12:56:20;35.17;;;21.50;;
52744;SDS011;38637;49.984;20.426;2024-03-02T12:58:46;29.97;;;20.40;;
52744;SDS011;38637;49.984;20.426;2024-03-02T13:01:11;30.27;;;20.50;;
52744;SDS011;38637;49.984;20.426;2024-03-02T13:03:40;26.45;;;19.65;;
52744;SDS011;38637;49.984;20.426;2024-03-02T13:06:06;23.95;;;18.40;;
52744;SDS011;38637;49.984;20.426;2024-03-02T13:08:32;30.60;;;20.70;;
52744;SDS011;38637;49.984;20.426;2024-03-02T13:11:01;28.58;;;19.20;;
52744;SDS011;38637;49.984;20.426;2024-03-02T13:13:26;25.80;;;16.87;;
52744;SDS011;38637;49.984;20.426;2024-03-02T13:15:55;26.48;;;17.10;;
52744;SDS011;38637;49.984;20.426;2024-03-02T13:18:21;24.93;;;14.47;;
52744;SDS011;38637;49.984;20.426;2024-03-02T13:20:47;20.35;;;14.77;;
52744;SDS011;38637;49.984;20.426;2024-03-02T13:23:12;15.97;;;11.87;;
52744;SDS011;38637;49.984;20.426;2024-03-02T13:25:38;17.93;;;12.27;;
52744;SDS011;38637;49.984;20.426;2024-03-02T13:28:03;21.90;;;11.23;;
52744;SDS011;38637;49.984;20.426;2024-03-02T13:30:29;13.33;;;10.00;;
52744;SDS011;38637;49.984;20.426;2024-03-02T13:32:54;17.80;;;11.07;;
52744;SDS011;38637;49.984;20.426;2024-03-02T13:35:19;19.27;;;12.17;;
52744;SDS011;38637;49.984;20.426;2024-03-02T13:37:45;14.23;;;11.00;;
52744;SDS011;38637;49.984;20.426;2024-03-02T13:40:10;25.93;;;12.13;;
52744;SDS011;38637;49.984;20.426;2024-03-02T13:42:39;14.10;;;10.57;;
52744;SDS011;38637;49.984;20.426;2024-03-02T13:45:05;21.52;;;11.65;;
52744;SDS011;38637;49.984;20.426;2024-03-02T13:47:31;14.55;;;9.40;;
52744;SDS011;38637;49.984;20.426;2024-03-02T13:49:57;18.43;;;11.07;;
52744;SDS011;38637;49.984;20.426;2024-03-02T13:52:22;18.67;;;12.60;;
52744;SDS011;38637;49.984;20.426;2024-03-02T13:54:48;17.87;;;11.50;;
52744;SDS011;38637;49.984;20.426;2024-03-02T13:57:14;16.02;;;10.98;;
52744;SDS011;38637;49.984;20.426;2024-03-02T13:59:40;17.87;;;11.10;;
52744;SDS011;38637;49.984;20.426;2024-03-02T14:02:07;17.63;;;10.32;;
52744;SDS011;38637;49.984;20.426;2024-03-02T14:04:33;14.85;;;9.45;;
52744;SDS011;38637;49.984;20.426;2024-03-02T14:06:59;17.93;;;9.37;;
52744;SDS011;38637;49.984;20.426;2024-03-02T14:09:25;17.23;;;9.50;;
52744;SDS011;38637;49.984;20.426;2024-03-02T14:11:51;12.18;;;8.82;;
52744;SDS011;38637;49.984;20.426;2024-03-02T14:14:16;30.30;;;11.07;;
52744;SDS011;38637;49.984;20.426;2024-03-02T14:16:42;21.83;;;11.43;;